Green Stars — V7VZ5 — position and weather

sailwx.info

Track history (hours):
 
Tides and Currents Weather Stations Pressure Air Temp Water Temp Dewpoint Dewpoint Depression Visibility Wind Speed Wind Dir Waves Ship Positions

Green Stars

Last reported at 2018-Apr-01 04:55 UTC. Time now 2018-Apr-21 19:18 UTC.
Position S 39°11' E 145°12'.
Warning: this ship's position is 20 days out of date.

Length 182 m; draft 7 m.

Type: Tanker. MMSI: 538004247.

Date/timePositionNaut miles runAvg speedWind from/ knotsBaromVisibWave heightAir tempDewpointWater temp
2018-Apr-01 04:55S 39°11' E 145°12'4 9.8
2018-Apr-01 04:29S 39°11' E 145°17'5 9.6
2018-Apr-01 03:59S 39°11' E 145°23'5 9.7
2018-Apr-01 03:30S 39°11' E 145°29'15 9.8
2018-Apr-01 01:56S 39°11' E 145°49'4 9.9
2018-Apr-01 01:30S 39°12' E 145°55'5 9.9
2018-Apr-01 00:58S 39°12' E 146°02'510.1
2018-Apr-01 00:25S 39°12' E 146°09'410.2
2018-Mar-31 23:59S 39°12' E 146°14'810.6
2018-Mar-31 23:16S 39°11' E 146°24'311.2
2018-Mar-31 22:58S 39°10' E 146°28'2512.1
2018-Mar-31 20:52S 39°02' E 146°59'48 9.9
2018-Mar-31 16:02S 38°47' E 147°58'010.4
2018-Mar-31 15:59S 38°46' E 147°58'5 9.8
2018-Mar-31 15:27S 38°45' E 148°04'710.1
2018-Mar-31 14:48S 38°43' E 148°12'610.5
2018-Mar-31 14:13S 38°39' E 148°19'611.4
2018-Mar-31 13:39S 38°35' E 148°25'211.4
2018-Mar-31 13:30S 38°34' E 148°27'511.2
2018-Mar-31 13:00S 38°30' E 148°32'510.7
2018-Mar-31 12:30S 38°27' E 148°38'510.5
2018-Mar-31 12:00S 38°24' E 148°43'510.9
2018-Mar-31 11:30S 38°21' E 148°49'611.0
2018-Mar-31 11:00S 38°18' E 148°55'611.3
2018-Mar-31 10:30S 38°16' E 149°01'811.6
2018-Mar-31 09:47S 38°12' E 149°11'412.1
2018-Mar-31 09:29S 38°10' E 149°15'27111.1
2018-Mar-30 09:10S 33°60' E 151°24'211.8
2018-Mar-30 09:00S 33°58' E 151°24'611.7
2018-Mar-30 08:30S 33°53' E 151°21'5 9.8
2018-Mar-30 08:00S 33°50' E 151°16'  
2018-Mar-26 06:29S 33°51' E 151°15'4 7.7
2018-Mar-26 06:00S 33°50' E 151°20'4 8.8
2018-Mar-26 05:30S 33°50' E 151°25'1 1.6
2018-Mar-26 05:00S 33°50' E 151°26'0 0.4
2018-Mar-26 04:30S 33°50' E 151°26'0 0.2
2018-Mar-26 04:00S 33°50' E 151°26'0 0.3
2018-Mar-26 03:30S 33°50' E 151°27'2 4.7
2018-Mar-26 03:00S 33°49' E 151°29'5 9.5
2018-Mar-26 02:30S 33°47' E 151°35'510.2
2018-Mar-26 02:00S 33°45' E 151°40'710.8
2018-Mar-26 01:20S 33°40' E 151°47'4512.0
2018-Mar-25 21:33S 33°15' E 152°32'111.2
2018-Mar-25 21:29S 33°15' E 152°33'611.2
2018-Mar-25 20:57S 33°12' E 152°39'2212.6
2018-Mar-25 19:13S 32°51' E 152°47'613.3
2018-Mar-25 18:47S 32°45' E 152°49'413.7
2018-Mar-25 18:29S 32°41' E 152°51'613.7
2018-Mar-25 18:00S 32°35' E 152°53'813.6
2018-Mar-25 17:25S 32°28' E 152°56'613.8
2018-Mar-25 17:00S 32°22' E 152°59'714.4
2018-Mar-25 16:30S 32°15' E 152°60'714.4
2018-Mar-25 16:00S 32°08' E 153°02'24314.0
2018-Mar-24 22:35S 28°12' E 154°09'114.3
2018-Mar-24 22:30S 28°10' E 154°09'914.0
2018-Mar-24 21:53S 28°02' E 154°10'  
Track history (hours):
 
Tides and Currents Weather Stations Pressure Air Temp Water Temp Dewpoint Dewpoint Depression Visibility Wind Speed Wind Dir Waves Ship Positions

Green Stars

Last reported at 2018-Apr-01 04:55 UTC. Time now 2018-Apr-21 19:18 UTC.
Position S 39°11' E 145°12'.
Warning: this ship's position is 20 days out of date.

Length 182 m; draft 7 m.

Type: Tanker. MMSI: 538004247.

Date/timePositionNaut miles runAvg speedWind from/ knotsBaromVisibWave heightAir tempDewpointWater temp
2018-Apr-01 04:55S 39°11' E 145°12'4 9.8
2018-Apr-01 04:29S 39°11' E 145°17'5 9.6
2018-Apr-01 03:59S 39°11' E 145°23'5 9.7
2018-Apr-01 03:30S 39°11' E 145°29'15 9.8
2018-Apr-01 01:56S 39°11' E 145°49'4 9.9
2018-Apr-01 01:30S 39°12' E 145°55'5 9.9
2018-Apr-01 00:58S 39°12' E 146°02'510.1
2018-Apr-01 00:25S 39°12' E 146°09'410.2
2018-Mar-31 23:59S 39°12' E 146°14'810.6
2018-Mar-31 23:16S 39°11' E 146°24'311.2
2018-Mar-31 22:58S 39°10' E 146°28'2512.1
2018-Mar-31 20:52S 39°02' E 146°59'48 9.9
2018-Mar-31 16:02S 38°47' E 147°58'010.4
2018-Mar-31 15:59S 38°46' E 147°58'5 9.8
2018-Mar-31 15:27S 38°45' E 148°04'710.1
2018-Mar-31 14:48S 38°43' E 148°12'610.5
2018-Mar-31 14:13S 38°39' E 148°19'611.4
2018-Mar-31 13:39S 38°35' E 148°25'211.4
2018-Mar-31 13:30S 38°34' E 148°27'511.2
2018-Mar-31 13:00S 38°30' E 148°32'510.7
2018-Mar-31 12:30S 38°27' E 148°38'510.5
2018-Mar-31 12:00S 38°24' E 148°43'510.9
2018-Mar-31 11:30S 38°21' E 148°49'611.0
2018-Mar-31 11:00S 38°18' E 148°55'611.3
2018-Mar-31 10:30S 38°16' E 149°01'811.6
2018-Mar-31 09:47S 38°12' E 149°11'412.1
2018-Mar-31 09:29S 38°10' E 149°15'27111.1
2018-Mar-30 09:10S 33°60' E 151°24'211.8
2018-Mar-30 09:00S 33°58' E 151°24'611.7
2018-Mar-30 08:30S 33°53' E 151°21'5 9.8
2018-Mar-30 08:00S 33°50' E 151°16'  
2018-Mar-26 06:29S 33°51' E 151°15'4 7.7
2018-Mar-26 06:00S 33°50' E 151°20'4 8.8
2018-Mar-26 05:30S 33°50' E 151°25'1 1.6
2018-Mar-26 05:00S 33°50' E 151°26'0 0.4
2018-Mar-26 04:30S 33°50' E 151°26'0 0.2
2018-Mar-26 04:00S 33°50' E 151°26'0 0.3
2018-Mar-26 03:30S 33°50' E 151°27'2 4.7
2018-Mar-26 03:00S 33°49' E 151°29'5 9.5
2018-Mar-26 02:30S 33°47' E 151°35'510.2
2018-Mar-26 02:00S 33°45' E 151°40'710.8
2018-Mar-26 01:20S 33°40' E 151°47'4512.0
2018-Mar-25 21:33S 33°15' E 152°32'111.2
2018-Mar-25 21:29S 33°15' E 152°33'611.2
2018-Mar-25 20:57S 33°12' E 152°39'2212.6
2018-Mar-25 19:13S 32°51' E 152°47'613.3
2018-Mar-25 18:47S 32°45' E 152°49'413.7
2018-Mar-25 18:29S 32°41' E 152°51'613.7
2018-Mar-25 18:00S 32°35' E 152°53'813.6
2018-Mar-25 17:25S 32°28' E 152°56'613.8
2018-Mar-25 17:00S 32°22' E 152°59'714.4
2018-Mar-25 16:30S 32°15' E 152°60'714.4
2018-Mar-25 16:00S 32°08' E 153°02'24314.0
2018-Mar-24 22:35S 28°12' E 154°09'114.3
2018-Mar-24 22:30S 28°10' E 154°09'914.0
2018-Mar-24 21:53S 28°02' E 154°10'  

Dump ship's entire track history